Time;durP1;ratioP1;P1;durP2;ratioP2;P2;SDS_P1;SDS_P2;PMS_P1;PMS_P2;Temp;Humidity;BMP_temperature;BMP_pressure;BME280_temperature;BME280_humidity;BME280_pressure;Samples;Min_cycle;Max_cycle;Signal;HPM_P1;HPM_P2
2023/05/23 00:02:15;;;;;;;6.30;4.50;;;;;;;16.12;43.86;100078.23;103690;1258;138436;-67
2023/05/23 00:04:43;;;;;;;7.10;4.50;;;;;;;16.08;43.95;100077.39;102861;1260;107719;-66
2023/05/23 00:07:10;;;;;;;11.40;4.90;;;;;;;16.05;44.01;100079.34;103474;1259;138482;-67
2023/05/23 00:09:38;;;;;;;7.30;4.70;;;;;;;16.02;44.19;100077.02;102954;1263;107312;-67
2023/05/23 00:12:06;;;;;;;8.10;4.90;;;;;;;15.99;44.08;100076.52;102971;1263;97778;-67
2023/05/23 00:14:34;;;;;;;6.70;4.60;;;;;;;15.96;44.16;100077.17;103066;1258;137404;-66
2023/05/23 00:17:01;;;;;;;13.30;4.50;;;;;;;15.94;44.25;100078.02;103013;1259;109002;-65
2023/05/23 00:19:29;;;;;;;9.90;4.80;;;;;;;15.90;44.23;100072.98;103020;1259;138271;-65
2023/05/23 00:21:57;;;;;;;7.00;3.90;;;;;;;15.87;44.37;100070.71;104297;1258;107152;-66
2023/05/23 00:24:24;;;;;;;10.10;5.20;;;;;;;15.84;44.40;100069.32;104211;1262;137963;-66
2023/05/23 00:26:51;;;;;;;7.60;4.60;;;;;;;15.81;44.46;100069.66;104370;1258;111405;-67
2023/05/23 00:29:18;;;;;;;9.90;4.50;;;;;;;15.79;44.47;100067.31;104312;1259;108087;-67
2023/05/23 00:31:46;;;;;;;9.20;5.00;;;;;;;15.78;44.55;100064.22;104260;1258;138630;-66
2023/05/23 00:34:14;;;;;;;8.00;4.60;;;;;;;15.75;44.56;100061.21;104311;1258;107481;-66
2023/05/23 00:36:46;;;;;;;7.10;4.60;;;;;;;15.74;44.65;100061.14;104217;1258;138424;-66
2023/05/23 00:39:18;;;;;;;9.30;4.90;;;;;;;15.72;44.62;100056.50;103990;1259;109973;-66
2023/05/23 00:41:48;;;;;;;7.00;4.40;;;;;;;15.70;44.74;100059.40;103298;1261;108149;-65
2023/05/23 00:44:20;;;;;;;12.20;5.60;;;;;;;15.68;44.80;100057.03;103150;1259;137803;-66
2023/05/23 00:46:52;;;;;;;8.50;4.80;;;;;;;15.68;44.87;100056.88;103052;1262;108564;-66
2023/05/23 00:49:20;;;;;;;7.90;4.70;;;;;;;15.67;44.98;100056.77;103009;1259;137896;-67
2023/05/23 00:51:48;;;;;;;8.70;5.30;;;;;;;15.64;45.02;100052.00;103406;1259;112452;-66
2023/05/23 00:54:18;;;;;;;8.60;4.80;;;;;;;15.62;45.25;100058.46;103410;1259;107089;-66
2023/05/23 00:56:47;;;;;;;8.20;4.80;;;;;;;15.60;45.27;100054.86;103148;1259;97848;-66
2023/05/23 00:59:15;;;;;;;7.70;4.80;;;;;;;15.58;45.40;100053.04;104254;1258;107066;-67
2023/05/23 01:01:45;;;;;;;7.30;4.90;;;;;;;15.56;45.32;100055.04;103549;1258;138359;-66
2023/05/23 01:04:15;;;;;;;10.20;4.70;;;;;;;15.56;45.54;100055.77;103563;1262;113093;-66
2023/05/23 01:06:45;;;;;;;8.30;4.70;;;;;;;15.54;45.53;100053.77;103335;1258;138289;-67
2023/05/23 01:09:13;;;;;;;9.20;4.70;;;;;;;15.54;45.53;100057.12;103760;1259;97938;-66
2023/05/23 01:11:47;;;;;;;8.00;5.00;;;;;;;15.52;45.61;100052.14;103708;1260;107883;-67
2023/05/23 01:14:22;;;;;;;8.30;4.90;;;;;;;15.50;45.75;100055.05;103028;1258;138064;-66
2023/05/23 01:16:55;;;;;;;7.90;5.20;;;;;;;15.49;45.81;100059.00;103643;1259;110288;-67
2023/05/23 01:19:48;;;;;;;7.90;4.40;;;;;;;15.47;45.87;100062.60;103497;1259;137724;-66
2023/05/23 01:22:28;;;;;;;7.90;4.80;;;;;;;15.44;45.92;100065.91;103718;1258;97834;-66
2023/05/23 01:25:07;;;;;;;12.70;5.50;;;;;;;15.42;46.09;100064.08;102926;1259;137956;-66
2023/05/23 01:27:47;;;;;;;6.90;5.10;;;;;;;15.40;46.11;100063.28;103050;1259;99013;-66
2023/05/23 01:30:17;;;;;;;8.60;4.80;;;;;;;15.38;46.13;100060.42;103409;1258;111065;-67
2023/05/23 01:32:46;;;;;;;7.50;4.90;;;;;;;15.36;46.15;100055.98;103401;1258;107667;-66
2023/05/23 01:35:15;;;;;;;11.80;4.90;;;;;;;15.34;46.13;100052.96;103740;1259;97852;-67
2023/05/23 01:37:45;;;;;;;10.70;5.00;;;;;;;15.33;45.93;100055.83;102893;1259;138152;-65
2023/05/23 01:40:13;;;;;;;6.90;4.30;;;;;;;15.32;46.19;100052.56;102882;1259;97793;-65
2023/05/23 01:42:42;;;;;;;9.20;4.60;;;;;;;15.30;46.19;100052.65;103612;1258;137714;-66
2023/05/23 01:45:12;;;;;;;7.90;5.20;;;;;;;15.28;46.21;100046.97;103746;1261;106622;-66
2023/05/23 01:47:41;;;;;;;11.70;5.20;;;;;;;15.27;46.27;100045.82;104302;1259;95686;-66
2023/05/23 01:50:11;;;;;;;9.50;5.00;;;;;;;15.25;46.47;100044.31;103050;1261;137887;-65
2023/05/23 01:52:39;;;;;;;15.70;5.30;;;;;;;15.24;46.51;100044.23;103347;1259;97822;-66
2023/05/23 01:55:10;;;;;;;8.50;5.10;;;;;;;15.21;46.56;100041.91;103199;1259;138056;-65
2023/05/23 01:57:38;;;;;;;11.70;5.10;;;;;;;15.18;46.65;100042.43;102931;1259;108896;-66
2023/05/23 02:00:10;;;;;;;11.20;5.50;;;;;;;15.15;46.74;100038.30;104158;1259;95775;-66
2023/05/23 02:02:41;;;;;;;8.60;4.90;;;;;;;15.10;46.79;100036.73;103700;1258;108312;-65
2023/05/23 02:05:11;;;;;;;7.30;5.00;;;;;;;15.07;46.91;100035.34;102950;1259;97919;-65
2023/05/23 02:07:38;;;;;;;10.40;5.40;;;;;;;15.04;46.96;100035.98;103096;1258;137637;-66
2023/05/23 02:10:08;;;;;;;10.80;5.30;;;;;;;15.01;47.07;100035.65;103596;1260;108908;-66
2023/05/23 02:12:35;;;;;;;7.10;4.90;;;;;;;14.96;47.09;100033.11;102981;1259;138241;-65
2023/05/23 02:15:02;;;;;;;9.40;5.10;;;;;;;14.93;47.15;100034.02;103574;1258;108397;-66
2023/05/23 02:17:30;;;;;;;13.20;4.90;;;;;;;14.89;47.05;100028.06;103433;1259;96335;-66
2023/05/23 02:19:58;;;;;;;6.90;4.60;;;;;;;14.87;47.17;100027.48;103560;1262;137880;-66
2023/05/23 02:22:26;;;;;;;10.20;5.20;;;;;;;14.84;47.17;100029.05;103848;1258;107616;-66
2023/05/23 02:24:53;;;;;;;9.20;4.90;;;;;;;14.81;47.27;100030.05;103861;1260;138618;-66
2023/05/23 02:27:20;;;;;;;11.10;5.00;;;;;;;14.78;47.25;100022.86;104185;1258;107762;-67
2023/05/23 02:29:48;;;;;;;8.40;5.40;;;;;;;14.77;47.35;100021.39;103436;1259;96406;-66
2023/05/23 02:32:15;;;;;;;7.50;5.00;;;;;;;14.75;47.34;100017.96;103258;1262;137975;-66
2023/05/23 02:34:45;;;;;;;9.50;4.80;;;;;;;14.75;47.37;100015.90;102969;1257;108321;-66
2023/05/23 02:37:13;;;;;;;9.60;4.60;;;;;;;14.74;47.45;100014.90;103721;1259;137798;-67
2023/05/23 02:39:40;;;;;;;8.70;5.00;;;;;;;14.73;47.56;100016.00;103108;1259;107981;-67
2023/05/23 02:42:07;;;;;;;8.40;4.70;;;;;;;14.72;47.51;100016.75;103490;1259;97611;-67
2023/05/23 02:44:35;;;;;;;7.90;5.10;;;;;;;14.70;47.46;100016.11;102798;1259;137369;-68
2023/05/23 02:47:02;;;;;;;9.30;5.00;;;;;;;14.69;47.59;100014.98;102884;1263;106350;-65
2023/05/23 02:49:29;;;;;;;6.50;4.80;;;;;;;14.69;47.56;100011.81;103398;1258;138083;-66
2023/05/23 02:51:56;;;;;;;12.90;5.10;;;;;;;14.69;47.51;100010.95;103482;1259;107612;-65
2023/05/23 02:54:23;;;;;;;6.20;4.40;;;;;;;14.69;47.45;100009.55;103036;1259;138778;-65
2023/05/23 02:56:54;;;;;;;10.00;5.00;;;;;;;14.70;47.41;100013.70;103081;1259;111255;-65
2023/05/23 02:59:22;;;;;;;10.10;4.70;;;;;;;14.71;47.51;100012.41;102882;1259;109453;-66
2023/05/23 03:01:49;;;;;;;7.00;5.10;;;;;;;14.72;47.54;100009.02;103176;1259;138602;-66
2023/05/23 03:04:17;;;;;;;5.60;4.50;;;;;;;14.74;47.43;100012.44;103393;1259;107547;-65
2023/05/23 03:06:44;;;;;;;7.90;5.20;;;;;;;14.76;47.47;100012.36;103197;1258;138217;-65
2023/05/23 03:09:12;;;;;;;8.40;5.10;;;;;;;14.77;47.45;100011.94;102946;1259;111123;-66
2023/05/23 03:11:39;;;;;;;6.70;4.30;;;;;;;14.78;47.50;100007.66;103276;1259;109672;-66
2023/05/23 03:14:07;;;;;;;6.90;4.60;;;;;;;14.79;47.48;100008.14;102858;1264;137982;-65
2023/05/23 03:16:34;;;;;;;7.30;4.90;;;;;;;14.79;47.48;100006.94;102975;1259;108078;-65
2023/05/23 03:19:01;;;;;;;7.60;4.70;;;;;;;14.78;47.60;100007.13;103338;1259;138433;-65
2023/05/23 03:21:30;;;;;;;11.20;4.80;;;;;;;14.79;47.59;100005.02;103507;1258;113306;-65
2023/05/23 03:23:57;;;;;;;5.70;4.70;;;;;;;14.80;47.60;100008.75;103234;1258;107854;-65
2023/05/23 03:26:25;;;;;;;8.40;4.90;;;;;;;14.82;47.65;100010.26;103375;1263;138107;-66
2023/05/23 03:28:52;;;;;;;7.70;4.90;;;;;;;14.83;47.54;100005.45;103420;1259;108402;-66
2023/05/23 03:31:20;;;;;;;10.50;5.40;;;;;;;14.86;47.53;100009.01;103443;1259;138710;-67
2023/05/23 03:33:47;;;;;;;8.80;4.90;;;;;;;14.88;47.65;100011.31;103075;1264;111941;-66
2023/05/23 03:36:15;;;;;;;8.20;5.00;;;;;;;14.89;47.69;100008.99;103016;1259;107991;-66
2023/05/23 03:38:43;;;;;;;9.10;4.90;;;;;;;14.90;47.64;100005.66;103124;1259;97793;-66
2023/05/23 03:41:11;;;;;;;8.60;4.60;;;;;;;14.92;47.69;100009.58;103098;1258;109703;-66
2023/05/23 03:43:38;;;;;;;10.90;4.60;;;;;;;14.93;47.78;100010.89;102848;1259;138082;-66
2023/05/23 03:46:05;;;;;;;13.10;5.00;;;;;;;14.96;47.67;100010.23;103610;1259;111470;-67
2023/05/23 03:48:33;;;;;;;14.90;5.70;;;;;;;15.00;47.66;100007.55;103291;1259;139064;-67
2023/05/23 03:51:00;;;;;;;13.40;4.60;;;;;;;15.03;47.77;100004.88;103210;1261;97954;-66
2023/05/23 03:53:28;;;;;;;12.20;4.70;;;;;;;15.08;47.56;100008.15;103449;1258;108785;-66
2023/05/23 03:55:56;;;;;;;11.30;4.90;;;;;;;15.12;47.60;100004.98;103067;1258;138505;-67
2023/05/23 03:58:24;;;;;;;11.30;5.20;;;;;;;15.16;47.49;100003.36;103027;1259;111998;-66
2023/05/23 04:00:54;;;;;;;10.00;5.20;;;;;;;15.21;47.48;100004.62;102947;1259;138219;-67
2023/05/23 04:03:22;;;;;;;12.50;4.70;;;;;;;15.25;47.43;100000.02;103667;1258;97870;-66
2023/05/23 04:05:50;;;;;;;11.60;4.90;;;;;;;15.29;47.37;100000.69;103276;1263;107290;-67
2023/05/23 04:08:20;;;;;;;7.90;4.80;;;;;;;15.34;47.27;99999.39;103058;1259;138610;-66
2023/05/23 04:10:50;;;;;;;10.90;4.90;;;;;;;15.38;47.19;99997.39;103744;1258;112444;-66
2023/05/23 04:13:17;;;;;;;13.30;5.30;;;;;;;15.41;47.20;99996.30;102935;1263;137880;-66
2023/05/23 04:15:46;;;;;;;8.40;4.70;;;;;;;15.45;47.13;99994.88;103498;1259;97947;-66
2023/05/23 04:18:16;;;;;;;10.50;4.60;;;;;;;15.51;47.08;99995.08;103255;1258;108280;-66
2023/05/23 04:20:44;;;;;;;15.40;4.80;;;;;;;15.57;47.03;99995.07;103382;1258;97801;-66
2023/05/23 04:23:11;;;;;;;7.30;5.00;;;;;;;15.63;46.86;99994.08;103019;1259;112580;-66
2023/05/23 04:25:40;;;;;;;12.80;4.80;;;;;;;15.67;46.77;99992.05;102899;1262;138099;-66
2023/05/23 04:28:18;;;;;;;9.10;5.00;;;;;;;15.74;46.76;99996.42;103235;1259;98008;-66
2023/05/23 04:30:48;;;;;;;13.90;5.20;;;;;;;15.80;46.59;100001.54;103386;1259;137850;-66
2023/05/23 04:33:19;;;;;;;14.90;5.10;;;;;;;15.84;46.60;99999.20;103464;1259;97683;-66
2023/05/23 04:35:46;;;;;;;11.80;5.00;;;;;;;15.88;46.55;99998.41;103054;1259;111570;-67
2023/05/23 04:38:13;;;;;;;14.20;4.90;;;;;;;15.92;46.59;99996.59;102802;1263;138275;-66
2023/05/23 04:40:42;;;;;;;9.70;5.20;;;;;;;15.99;46.60;99995.84;102939;1259;97871;-66
2023/05/23 04:43:41;;;;;;;13.00;4.90;;;;;;;16.08;46.66;99996.55;102904;1259;137619;-66
2023/05/23 04:46:22;;;;;;;10.20;5.20;;;;;;;16.16;46.63;99994.30;103088;1259;97779;-66
2023/05/23 04:48:55;;;;;;;13.40;5.30;;;;;;;16.25;46.70;99991.52;102929;1259;137848;-65
2023/05/23 04:51:22;;;;;;;12.40;5.20;;;;;;;16.34;46.51;99995.56;103477;1258;107109;-66
2023/05/23 04:53:55;;;;;;;11.30;5.30;;;;;;;16.40;46.35;99994.64;102983;1259;98006;-66
2023/05/23 04:56:27;;;;;;;10.70;4.60;;;;;;;16.47;46.19;99992.65;103109;1259;137646;-65
2023/05/23 04:58:54;;;;;;;9.60;4.90;;;;;;;16.53;46.00;99986.63;103254;1259;97809;-67
2023/05/23 05:01:23;;;;;;;13.40;5.50;;;;;;;16.62;46.11;99986.27;102937;1263;137664;-66
2023/05/23 05:03:52;;;;;;;10.80;4.80;;;;;;;16.73;45.94;99985.83;103677;1263;107589;-67
2023/05/23 05:06:20;;;;;;;13.50;5.10;;;;;;;16.85;45.79;99987.63;103095;1259;97833;-68
2023/05/23 05:08:48;;;;;;;8.40;5.10;;;;;;;17.00;45.80;99984.33;102914;1263;109138;-67
2023/05/23 05:11:15;;;;;;;10.60;5.00;;;;;;;17.11;45.36;99982.52;102904;1259;97706;-67
2023/05/23 05:13:42;;;;;;;8.70;5.00;;;;;;;17.24;45.21;99974.84;102793;1259;137980;-68
2023/05/23 05:16:10;;;;;;;9.90;4.80;;;;;;;17.41;45.18;99976.03;102838;1259;106443;-67
2023/05/23 05:18:39;;;;;;;9.10;5.40;;;;;;;17.59;44.81;99971.54;102880;1263;139873;-66
2023/05/23 05:21:07;;;;;;;14.80;5.00;;;;;;;17.78;44.57;99970.66;103483;1258;107592;-67
2023/05/23 05:23:37;;;;;;;10.50;4.70;;;;;;;17.99;44.51;99969.05;103087;1259;97794;-66
2023/05/23 05:26:07;;;;;;;7.40;4.50;;;;;;;18.29;44.44;99968.48;102941;1263;138239;-66
2023/05/23 05:28:34;;;;;;;15.00;5.20;;;;;;;18.65;44.02;99962.28;102803;1259;107818;-67
2023/05/23 05:31:03;;;;;;;8.80;4.60;;;;;;;19.19;43.75;99965.06;103084;1259;138179;-68
2023/05/23 05:33:34;;;;;;;15.30;4.60;;;;;;;20.48;42.88;99961.57;102891;1258;108058;-67
2023/05/23 05:36:09;;;;;;;8.70;4.10;;;;;;;22.58;40.39;99955.13;102814;1259;98266;-68
2023/05/23 05:38:36;;;;;;;5.60;3.90;;;;;;;24.56;37.83;99949.83;102795;1259;138030;-66
2023/05/23 05:41:03;;;;;;;7.00;3.90;;;;;;;26.35;34.98;99943.55;102953;1259;107695;-66
2023/05/23 05:43:35;;;;;;;8.00;4.70;;;;;;;27.93;33.26;99937.45;103623;1259;137871;-69
2023/05/23 05:46:03;;;;;;;8.10;3.90;;;;;;;29.37;31.03;99934.44;102806;1263;108733;-68
2023/05/23 05:48:30;;;;;;;7.70;3.60;;;;;;;30.47;29.07;99933.51;102751;1259;140595;-66
2023/05/23 05:51:02;;;;;;;4.60;3.30;;;;;;;31.46;27.67;99934.70;103590;1258;112977;-66
2023/05/23 05:53:31;;;;;;;7.20;3.80;;;;;;;32.24;25.72;99931.98;103302;1259;107719;-67
2023/05/23 05:56:00;;;;;;;6.90;2.90;;;;;;;32.75;24.81;99928.42;104006;1258;139161;-67
2023/05/23 05:58:28;;;;;;;6.80;3.20;;;;;;;33.47;24.09;99929.33;103793;1259;107504;-67
2023/05/23 06:01:01;;;;;;;7.40;2.90;;;;;;;34.06;23.31;99928.42;102742;1259;137830;-66
2023/05/23 06:03:28;;;;;;;4.70;2.70;;;;;;;34.66;22.77;99922.23;102907;1258;102342;-67
2023/05/23 06:05:57;;;;;;;7.60;3.60;;;;;;;35.35;22.55;99920.11;102871;1258;100265;-68
2023/05/23 06:08:25;;;;;;;7.20;3.10;;;;;;;36.08;21.96;99924.48;102872;1263;137594;-66
2023/05/23 06:10:52;;;;;;;10.20;3.00;;;;;;;36.63;20.16;99924.45;103406;1258;100108;-68
2023/05/23 06:13:21;;;;;;;6.20;3.00;;;;;;;36.77;19.60;99923.35;103417;1258;138089;-67
2023/05/23 06:15:51;;;;;;;8.10;3.20;;;;;;;37.03;18.88;99919.86;102992;1263;102275;-67
2023/05/23 06:18:19;;;;;;;5.80;3.10;;;;;;;37.19;18.19;99922.07;102741;1261;100307;-68
2023/05/23 06:20:46;;;;;;;4.80;2.70;;;;;;;37.29;18.07;99919.77;102880;1263;97903;-68
2023/05/23 06:23:15;;;;;;;12.60;2.90;;;;;;;37.31;17.68;99919.88;102877;1262;100368;-68
2023/05/23 06:25:43;;;;;;;8.90;3.10;;;;;;;37.23;17.17;99916.13;103234;1258;137921;-68
2023/05/23 06:28:11;;;;;;;4.90;3.00;;;;;;;37.24;17.30;99914.23;102931;1258;103527;-68
2023/05/23 06:30:38;;;;;;;6.70;2.90;;;;;;;37.25;17.24;99914.98;102742;1258;137882;-68
2023/05/23 06:33:07;;;;;;;6.60;2.90;;;;;;;37.27;17.21;99906.71;102844;1263;97793;-68
2023/05/23 06:35:34;;;;;;;7.10;2.70;;;;;;;37.51;17.26;99907.69;102891;1263;100140;-68
2023/05/23 06:38:02;;;;;;;4.40;2.70;;;;;;;37.70;16.97;99911.83;103216;1263;139438;-66
2023/05/23 06:40:29;;;;;;;5.60;2.70;;;;;;;37.90;16.64;99908.18;102904;1259;104004;-67
2023/05/23 06:42:56;;;;;;;8.90;2.60;;;;;;;37.91;16.34;99904.56;102654;1261;137882;-67
2023/05/23 06:45:33;;;;;;;8.30;2.80;;;;;;;38.02;16.28;99898.35;102887;1263;97872;-68
2023/05/23 06:48:01;;;;;;;4.40;2.90;;;;;;;38.30;16.51;99899.12;102754;1263;98661;-67
2023/05/23 06:50:29;;;;;;;5.10;3.00;;;;;;;38.47;16.05;99900.14;102792;1259;137474;-67
2023/05/23 06:52:56;;;;;;;8.30;2.50;;;;;;;38.42;15.63;99898.11;102854;1259;104521;-67
2023/05/23 06:55:24;;;;;;;6.70;2.50;;;;;;;38.39;15.86;99891.36;102601;1259;137789;-68
2023/05/23 06:57:51;;;;;;;5.30;2.50;;;;;;;38.50;15.34;99890.82;102839;1261;97981;-68
2023/05/23 07:00:21;;;;;;;7.10;2.60;;;;;;;38.45;15.47;99891.00;102837;1258;100361;-67
2023/05/23 07:03:00;;;;;;;11.10;2.90;;;;;;;38.37;15.52;99885.88;102857;1259;97801;-68
2023/05/23 07:05:28;;;;;;;9.30;3.10;;;;;;;38.48;15.56;99890.02;102910;1263;103633;-67
2023/05/23 07:07:55;;;;;;;6.30;2.80;;;;;;;38.65;15.62;99886.25;102804;1259;138240;-69
2023/05/23 07:10:22;;;;;;;10.30;3.20;;;;;;;38.97;15.52;99877.30;102255;1258;97751;-70
2023/05/23 07:12:51;;;;;;;6.60;2.60;;;;;;;39.14;15.24;99873.98;102339;1259;137928;-68
2023/05/23 07:15:19;;;;;;;10.90;3.00;;;;;;;39.09;15.31;99875.13;102931;1259;97799;-69
2023/05/23 07:18:12;;;;;;;6.90;2.50;;;;;;;39.12;14.97;99870.95;102818;1259;105018;-70
2023/05/23 07:20:40;;;;;;;7.20;2.80;;;;;;;38.85;14.54;99874.66;102765;1264;137505;-69
2023/05/23 07:23:13;;;;;;;7.20;2.40;;;;;;;38.38;14.80;99872.54;102781;1259;97837;-69
2023/05/23 07:25:41;;;;;;;4.40;2.50;;;;;;;38.12;15.07;99870.41;103911;1259;138059;-70
2023/05/23 07:28:28;;;;;;;7.80;2.30;;;;;;;37.84;14.91;99869.27;102920;1259;97779;-70
2023/05/23 07:30:57;;;;;;;3.00;2.20;;;;;;;37.18;14.50;99865.45;103151;1258;138117;-69
2023/05/23 07:33:24;;;;;;;4.70;2.30;;;;;;;36.66;14.99;99868.69;103232;1259;100230;-69
2023/05/23 07:35:54;;;;;;;10.80;2.60;;;;;;;36.30;15.12;99871.26;102912;1259;97812;-69
2023/05/23 07:38:22;;;;;;;9.60;2.40;;;;;;;36.09;15.45;99870.22;102660;1264;138073;-69
2023/05/23 07:40:49;;;;;;;8.20;2.80;;;;;;;36.13;15.64;99862.96;102886;1259;98480;-69
2023/05/23 07:43:36;;;;;;;4.40;2.60;;;;;;;36.14;15.54;99861.70;102832;1259;137960;-69
2023/05/23 07:46:04;;;;;;;7.00;2.40;;;;;;;36.03;15.29;99856.63;102769;1259;99580;-70
2023/05/23 07:48:31;;;;;;;5.30;2.30;;;;;;;35.85;15.51;99856.74;103107;1263;137798;-70
2023/05/23 07:50:59;;;;;;;7.90;2.20;;;;;;;35.87;15.86;99853.84;102962;1259;100526;-70
2023/05/23 07:53:26;;;;;;;5.70;2.50;;;;;;;35.94;15.71;99853.16;103480;1259;96679;-70
2023/05/23 07:55:54;;;;;;;6.10;2.50;;;;;;;35.90;15.66;99847.10;103131;1259;137649;-69
2023/05/23 07:58:22;;;;;;;8.90;2.10;;;;;;;35.75;15.84;99844.06;103697;1259;98568;-69
2023/05/23 08:00:50;;;;;;;7.50;2.50;;;;;;;35.74;15.92;99841.65;102839;1259;340635;-69
2023/05/23 08:03:45;;;;;;;10.30;2.90;;;;;;;35.79;15.62;99840.07;103529;1259;99466;-73
2023/05/23 08:06:19;;;;;;;5.90;2.40;;;;;;;35.60;15.99;99846.66;103217;1261;97886;-76
2023/05/23 08:08:46;;;;;;;5.60;2.30;;;;;;;35.47;16.36;99846.23;102829;1263;105634;-65
2023/05/23 08:11:15;;;;;;;6.10;2.50;;;;;;;35.22;16.09;99846.46;103123;1259;99780;-70
2023/05/23 08:13:45;;;;;;;6.40;2.60;;;;;;;34.66;16.44;99847.54;102996;1259;137541;-66
2023/05/23 08:16:28;;;;;;;9.10;2.60;;;;;;;34.28;16.78;99844.25;103025;1259;100510;-69
2023/05/23 08:18:55;;;;;;;7.10;2.70;;;;;;;33.99;16.59;99854.08;103090;1259;138547;-72
2023/05/23 08:21:23;;;;;;;5.30;2.80;;;;;;;33.56;17.15;99844.73;103161;1263;102462;-70
2023/05/23 08:23:51;;;;;;;5.00;2.60;;;;;;;33.29;17.81;99843.33;102977;1259;100063;-69
2023/05/23 08:26:18;;;;;;;8.00;2.40;;;;;;;33.20;17.81;99837.98;102809;1264;138102;-69
2023/05/23 08:28:46;;;;;;;6.30;2.50;;;;;;;33.21;17.63;99835.50;103017;1263;100334;-69
2023/05/23 08:31:14;;;;;;;6.40;2.70;;;;;;;33.28;18.12;99827.36;103167;1263;137653;-70
2023/05/23 08:33:42;;;;;;;6.90;2.70;;;;;;;33.60;18.33;99827.30;103487;1259;103523;-70
2023/05/23 08:36:09;;;;;;;4.70;2.50;;;;;;;33.87;17.94;99825.13;104246;1259;99684;-70
2023/05/23 08:38:37;;;;;;;5.10;2.40;;;;;;;33.72;17.50;99828.76;104207;1259;138501;-72
2023/05/23 08:41:18;;;;;;;8.00;2.60;;;;;;;33.59;18.03;99820.66;104186;1259;100361;-71
2023/05/23 08:43:46;;;;;;;5.80;2.70;;;;;;;33.53;18.03;99819.70;104100;1259;137865;-72
2023/05/23 08:46:17;;;;;;;5.50;2.70;;;;;;;33.61;18.25;99820.60;104253;1259;102064;-72
2023/05/23 08:48:51;;;;;;;3.90;2.70;;;;;;;33.85;18.34;99825.55;104012;1259;139634;-72
2023/05/23 08:51:19;;;;;;;5.80;2.80;;;;;;;33.79;17.48;99832.04;102930;1259;97794;-66
2023/05/23 08:53:48;;;;;;;8.20;2.50;;;;;;;33.32;18.02;99816.45;102919;1259;100166;-65
2023/05/23 08:56:19;;;;;;;5.30;2.80;;;;;;;32.87;17.95;99812.67;103221;1259;137703;-65
2023/05/23 08:58:48;;;;;;;6.60;2.70;;;;;;;32.58;18.32;99811.86;102898;1259;111660;-65
2023/05/23 09:01:20;;;;;;;5.00;2.60;;;;;;;32.43;18.54;99811.52;103131;1259;138966;-65
2023/05/23 09:03:51;;;;;;;4.00;2.50;;;;;;;32.52;18.64;99812.55;102866;1259;97889;-66
2023/05/23 09:06:58;;;;;;;6.20;2.30;;;;;;;32.42;18.61;99810.94;102632;1265;137951;-80
2023/05/23 09:09:27;;;;;;;4.40;2.80;;;;;;;32.33;18.70;99809.73;102360;1270;98014;-76
2023/05/23 09:11:58;;;;;;;6.20;2.40;;;;;;;32.28;19.23;99803.08;103762;1259;111984;-76
2023/05/23 09:14:29;;;;;;;6.00;2.50;;;;;;;32.52;19.00;99812.73;102811;1259;137623;-77
2023/05/23 09:17:02;;;;;;;2.90;2.40;;;;;;;32.43;18.82;99811.18;103326;1264;97834;-74
2023/05/23 09:19:32;;;;;;;4.70;2.40;;;;;;;32.31;18.87;99808.64;103029;1263;137485;-73
2023/05/23 09:22:11;;;;;;;5.10;2.50;;;;;;;31.72;18.64;99809.86;103238;1263;97837;-72
2023/05/23 09:24:52;;;;;;;178.30;10.30;;;;;;;31.28;19.14;99801.34;102800;1263;137782;-74
2023/05/23 09:27:19;;;;;;;8.90;2.30;;;;;;;31.18;19.19;99799.04;102874;1263;107877;-72
2023/05/23 09:29:47;;;;;;;8.20;2.50;;;;;;;31.16;19.68;99797.67;102822;1264;96492;-72
2023/05/23 09:32:18;;;;;;;3.10;2.00;;;;;;;31.19;19.21;99806.83;102710;1259;137986;-72
2023/05/23 09:34:57;;;;;;;4.20;2.50;;;;;;;30.83;19.19;99810.17;102820;1259;97768;-72
2023/05/23 09:37:31;;;;;;;5.30;2.20;;;;;;;30.38;19.49;99801.90;102729;1259;137678;-74
2023/05/23 09:40:00;;;;;;;7.40;2.70;;;;;;;30.47;19.57;99802.14;102804;1259;107514;-73
2023/05/23 09:42:33;;;;;;;5.00;2.00;;;;;;;30.53;19.48;99804.09;104235;1259;137698;-73
2023/05/23 09:45:01;;;;;;;2.80;2.10;;;;;;;30.49;19.57;99794.18;104300;1259;107446;-73
2023/05/23 09:47:31;;;;;;;8.10;2.50;;;;;;;30.31;19.37;99800.30;104269;1259;96069;-73
2023/05/23 09:49:58;;;;;;;4.70;2.50;;;;;;;30.14;19.52;99787.02;104166;1259;137579;-74
2023/05/23 09:52:26;;;;;;;6.00;2.20;;;;;;;30.10;19.39;99790.36;102899;1263;107670;-73
2023/05/23 09:54:54;;;;;;;6.90;2.50;;;;;;;29.63;19.77;99788.23;102815;1264;138490;-73
2023/05/23 09:57:24;;;;;;;7.60;2.40;;;;;;;29.04;20.08;99798.01;102919;1259;108263;-73
2023/05/23 09:59:55;;;;;;;4.60;2.30;;;;;;;28.73;20.56;99793.27;102981;1263;97818;-72
2023/05/23 10:02:54;;;;;;;4.50;2.20;;;;;;;28.67;20.42;99806.88;102812;1259;137559;-73
2023/05/23 10:05:34;;;;;;;5.80;2.30;;;;;;;28.49;20.65;99798.05;102860;1263;107675;-72
2023/05/23 10:08:07;;;;;;;4.80;2.20;;;;;;;28.54;20.89;99786.76;102858;1259;137778;-71
2023/05/23 10:10:35;;;;;;;5.00;2.40;;;;;;;28.60;20.71;99794.58;102941;1259;107428;-74
2023/05/23 10:13:05;;;;;;;3.90;2.50;;;;;;;28.55;20.74;99793.23;102820;1259;137786;-73
2023/05/23 10:15:39;;;;;;;3.30;2.30;;;;;;;28.65;20.78;99791.55;102918;1263;112188;-73
2023/05/23 10:18:16;;;;;;;7.30;2.50;;;;;;;28.84;20.93;99782.70;102864;1263;106998;-73
2023/05/23 10:20:48;;;;;;;6.40;2.40;;;;;;;28.92;20.55;99792.82;102832;1263;137617;-74
2023/05/23 10:23:15;;;;;;;2.70;2.20;;;;;;;28.94;20.43;99792.55;102899;1263;107941;-73
2023/05/23 10:25:44;;;;;;;8.50;2.60;;;;;;;28.47;20.51;99786.61;102854;1259;137632;-74
2023/05/23 10:28:11;;;;;;;3.30;2.20;;;;;;;28.01;20.76;99800.41;102923;1258;113254;-73
2023/05/23 10:30:40;;;;;;;10.50;2.10;;;;;;;27.54;21.15;99792.27;102811;1259;139090;-74
2023/05/23 10:33:08;;;;;;;5.30;2.70;;;;;;;27.29;21.72;99786.08;102906;1263;97893;-74
2023/05/23 10:35:47;;;;;;;5.70;2.60;;;;;;;27.34;21.92;99781.13;102945;1259;108131;-73
2023/05/23 10:38:26;;;;;;;6.20;2.70;;;;;;;27.30;22.08;99783.16;102824;1261;137756;-74
2023/05/23 10:41:04;;;;;;;5.60;2.60;;;;;;;27.11;21.88;99784.18;102900;1263;111323;-74
2023/05/23 10:43:40;;;;;;;7.40;2.10;;;;;;;26.89;22.16;99781.90;102790;1259;137641;-78
2023/05/23 10:46:09;;;;;;;5.30;2.30;;;;;;;26.87;22.42;99787.63;102910;1259;97726;-82
2023/05/23 10:48:43;;;;;;;2.50;2.20;;;;;;;26.89;22.39;99798.96;102779;1263;137611;-82
2023/05/23 10:51:13;;;;;;;7.10;2.70;;;;;;;26.83;22.64;99788.23;102949;1259;97795;-83
2023/05/23 10:53:41;;;;;;;4.30;2.70;;;;;;;26.88;22.77;99784.14;102975;1259;111269;-83
2023/05/23 10:56:11;;;;;;;8.70;2.30;;;;;;;26.98;22.64;99775.40;102775;1259;137577;-85
2023/05/23 10:58:39;;;;;;;3.50;2.60;;;;;;;27.03;22.62;99788.52;102876;1259;97735;-77
